Map

Track Data

SID SEASON NUMBER BASIN SUBBASIN NAME ISO_TIME NATURE LAT LON WMO_WIND WMO_PRES WMO_AGENCY TRACK_TYPE DIST2LAND LANDFALL IFLAG USA_AGENCY USA_ATCF_ID USA_LAT USA_LON USA_RECORD USA_STATUS USA_WIND USA_PRES USA_SSHS USA_R34_NE USA_R34_SE USA_R34_SW USA_R34_NW USA_R50_NE USA_R50_SE USA_R50_SW USA_R50_NW USA_R64_NE USA_R64_SE USA_R64_SW USA_R64_NW USA_POCI USA_ROCI USA_RMW USA_EYE TOKYO_LAT TOKYO_LON TOKYO_GRADE TOKYO_WIND TOKYO_PRES TOKYO_R50_DIR TOKYO_R50_LONG TOKYO_R50_SHORT TOKYO_R30_DIR TOKYO_R30_LONG TOKYO_R30_SHORT TOKYO_LAND CMA_LAT CMA_LON CMA_CAT CMA_WIND CMA_PRES HKO_LAT HKO_LON HKO_CAT HKO_WIND HKO_PRES NEWDELHI_LAT NEWDELHI_LON NEWDELHI_GRADE NEWDELHI_WIND NEWDELHI_PRES NEWDELHI_CI NEWDELHI_DP NEWDELHI_POCI REUNION_LAT REUNION_LON REUNION_TYPE REUNION_WIND REUNION_PRES REUNION_TNUM REUNION_CI REUNION_RMW REUNION_R34_NE REUNION_R34_SE REUNION_R34_SW REUNION_R34_NW REUNION_R50_NE REUNION_R50_SE REUNION_R50_SW REUNION_R50_NW REUNION_R64_NE REUNION_R64_SE REUNION_R64_SW REUNION_R64_NW BOM_LAT BOM_LON BOM_TYPE BOM_WIND BOM_PRES BOM_TNUM BOM_CI BOM_RMW BOM_R34_NE BOM_R34_SE BOM_R34_SW BOM_R34_NW BOM_R50_NE BOM_R50_SE BOM_R50_SW BOM_R50_NW BOM_R64_NE BOM_R64_SE BOM_R64_SW BOM_R64_NW BOM_ROCI BOM_POCI BOM_EYE BOM_POS_METHOD BOM_PRES_METHOD NADI_LAT NADI_LON NADI_CAT NADI_WIND NADI_PRES WELLINGTON_LAT WELLINGTON_LON WELLINGTON_WIND WELLINGTON_PRES DS824_LAT DS824_LON DS824_STAGE DS824_WIND DS824_PRES TD9636_LAT TD9636_LON TD9636_STAGE TD9636_WIND TD9636_PRES TD9635_LAT TD9635_LON TD9635_WIND TD9635_PRES TD9635_ROCI NEUMANN_LAT NEUMANN_LON NEUMANN_CLASS NEUMANN_WIND NEUMANN_PRES MLC_LAT MLC_LON MLC_CLASS MLC_WIND MLC_PRES USA_GUST BOM_GUST BOM_GUST_PER REUNION_GUST REUNION_GUST_PER USA_SEAHGT USA_SEARAD_NE USA_SEARAD_SE USA_SEARAD_SW USA_SEARAD_NW STORM_SPEED STORM_DIR
1994251N10180 1994 82 WP MM MELISSA 1994-09-08 00:00:00 NR 10.0000 179.900 main 2547 2547 O_____________ jtwc_wp WP261994 10.0000 179.900 10 -1 14 266
1994251N10180 1994 82 WP MM MELISSA 1994-09-08 03:00:00 NR 9.95028 179.207 main 2611 2611 P_____________ WP261994 9.95028 179.207 10 -1 14 266
1994251N10180 1994 82 WP MM MELISSA 1994-09-08 06:00:00 NR 9.90000 178.500 main 2681 2681 O_____________ jtwc_wp WP261994 9.90000 178.500 10 -1 14 266
1994251N10180 1994 82 WP MM MELISSA 1994-09-08 09:00:00 NR 9.84983 177.765 main 2751 2716 P_____________ WP261994 9.84983 177.765 10 -1 15 266
1994251N10180 1994 82 WP MM MELISSA 1994-09-08 12:00:00 NR 9.80000 177.000 main 2716 2666 O_____________ jtwc_wp WP261994 9.80000 177.000 10 -1 15 266
1994251N10180 1994 82 WP MM MELISSA 1994-09-08 15:00:00 NR 9.74986 176.208 main 2650 2594 P_____________ WP261994 9.74986 176.208 12 -1 16 266
1994251N10180 1994 82 WP MM MELISSA 1994-09-08 18:00:00 NR 9.70000 175.400 main 2594 2540 O_____________ jtwc_wp WP261994 9.70000 175.400 15 -1 16 266
1994251N10180 1994 82 WP MM MELISSA 1994-09-08 21:00:00 NR 9.64982 174.600 main 2531 2478 P_____________ WP261994 9.64982 174.600 15 -1 16 266
1994251N10180 1994 82 WP MM MELISSA 1994-09-09 00:00:00 NR 9.60000 173.800 main 2478 2428 O_____________ jtwc_wp WP261994 9.60000 173.800 15 -1 16 266
1994251N10180 1994 82 WP MM MELISSA 1994-09-09 03:00:00 NR 9.54982 173.000 main 2418 2370 P_____________ WP261994 9.54982 173.000 15 -1 16 266
1994251N10180 1994 82 WP MM MELISSA 1994-09-09 06:00:00 NR 9.50000 172.200 main 2370 2324 O_____________ jtwc_wp WP261994 9.50000 172.200 15 -1 16 266
1994251N10180 1994 82 WP MM MELISSA 1994-09-09 09:00:00 NR 9.44982 171.400 main 2314 2271 P_____________ WP261994 9.44982 171.400 15 -1 16 266
1994251N10180 1994 82 WP MM MELISSA 1994-09-09 12:00:00 NR 9.40000 170.600 main 2271 2220 O_____________ jtwc_wp WP261994 9.40000 170.600 15 -1 16 266
1994251N10180 1994 82 WP MM MELISSA 1994-09-09 15:00:00 NR 9.34232 169.800 main 2220 2181 P_____________ WP261994 9.34232 169.800 17 -1 16 266
1994251N10180 1994 82 WP MM MELISSA 1994-09-09 18:00:00 NR 9.30000 169.000 main 2181 2146 O_____________ jtwc_wp WP261994 9.30000 169.000 20 -1 16 268
1994251N10180 1994 82 WP MM MELISSA 1994-09-09 21:00:00 NR 9.28482 168.200 main 2146 2113 P_____________ WP261994 9.28482 168.200 20 -1 16 270
1994251N10180 1994 82 WP MM MELISSA 1994-09-10 00:00:00 NR 9.30000 167.400 main 2113 2084 O_____________ jtwc_wp WP261994 9.30000 167.400 20 -1 16 272
1994251N10180 1994 82 WP MM MELISSA 1994-09-10 03:00:00 NR 9.34237 166.593 main 2084 2057 P_____________ WP261994 9.34237 166.593 20 -1 16 274
1994251N10180 1994 82 WP MM MELISSA 1994-09-10 06:00:00 NR 9.40000 165.800 main 2057 2013 O_____________ jtwc_wp WP261994 9.40000 165.800 20 -1 15 274
1994251N10180 1994 82 WP MM MELISSA 1994-09-10 09:00:00 NR 9.44979 165.042 main 2007 1970 P_____________ WP261994 9.44979 165.042 22 -1 15 274
1994251N10180 1994 82 WP MM MELISSA 1994-09-10 12:00:00 NR 9.50000 164.300 main 1970 1920 O_____________ jtwc_wp WP261994 9.50000 164.300 25 -1 15 274
1994251N10180 1994 82 WP MM MELISSA 1994-09-10 15:00:00 NR 9.54989 163.542 main 1913 1875 P_____________ WP261994 9.54989 163.542 25 -1 15 274
1994251N10180 1994 82 WP MM MELISSA 1994-09-10 18:00:00 NR 9.60000 162.800 main 1875 1828 O_____________ jtwc_wp WP261994 9.60000 162.800 25 -1 15 274
1994251N10180 1994 82 WP MM MELISSA 1994-09-10 21:00:00 NR 9.64990 162.077 main 1828 1775 P_____________ WP261994 9.64990 162.077 27 -1 15 271
1994251N10180 1994 82 WP MM MELISSA 1994-09-11 00:00:00 NR 9.62000 161.300 main 1775 1737 O__O__________ jtwc_wp WP261994 9.70000 161.400 30 -1 9.30000 160.900 TD 25 1004 14 270
1994251N10180 1994 82 WP MM MELISSA 1994-09-11 03:00:00 NR 9.64330 160.632 main 1731 1717 P__P__________ WP261994 9.74239 160.770 32 -1 9.44513 160.355 TD 27 1002 11 273
1994251N10180 1994 82 WP MM MELISSA 1994-09-11 06:00:00 TS 9.68750 160.150 1002 tokyo main 1717 1692 OO_O__________ jtwc_wp WP261994 9.80000 160.200 35 0 9.50000 161.000 2 1002 0 0 0 9.60000 159.800 TD 30 1000 10 280
1994251N10180 1994 82 WP MM MELISSA 1994-09-11 09:00:00 TS 9.81404 159.607 main 1692 1684 PP_P__________ WP261994 9.88486 159.685 35 0 9.74554 160.193 2 1001 0 0 9.77748 159.235 TD 30 1000 11 287
1994251N10180 1994 82 WP MM MELISSA 1994-09-11 12:00:00 TS 10.0000 159.133 1000 tokyo main 1682 1676 OOOO__________ jtwc_wp WP261994 10.0000 159.200 35 0 10.0000 159.500 2 1000 0 0 0 10.0000 159.500 1 29 1000 10.0000 158.700 TD 30 1000 10 295
1994251N10180 1994 82 WP MM MELISSA 1994-09-11 15:00:00 TS 10.2285 158.692 main 1680 1680 PPPP__________ WP261994 10.1275 158.677 37 0 10.2772 158.997 2 999 0 0 10.2200 159.070 1 29 1000 10.2850 158.213 TD 32 999 10 301
1994251N10180 1994 82 WP MM MELISSA 1994-09-11 18:00:00 TS 10.5000 158.280 35 998 tokyo main 1689 1685 OOOO__________ jtwc_wp WP261994 10.3000 158.200 40 0 10.6000 158.600 3 35 998 0 9 60 60 0 10.5000 158.600 1 29 1000 10.6000 157.800 TS 35 998 10 307
1994251N10180 1994 82 WP MM MELISSA 1994-09-11 21:00:00 TS 10.8250 157.879 main 1699 1699 PPPP__________ WP261994 10.5274 157.805 42 0 11.0075 158.170 3 35 998 0 9 60 60 10.8651 158.078 1 33 997 10.8999 157.462 TS 37 996 10 311
1994251N10180 1994 82 WP MM MELISSA 1994-09-12 00:00:00 TS 11.1500 157.525 35 998 tokyo main 1720 1710 OOOO__________ jtwc_wp WP261994 10.8000 157.500 45 0 11.4000 157.800 3 35 998 0 9 60 60 0 11.2000 157.600 2 38 995 11.2000 157.200 TS 40 994 9 313
1994251N10180 1994 82 WP MM MELISSA 1994-09-12 03:00:00 TS 11.4131 157.246 main 1726 1726 PPPP__________ WP261994 11.1000 157.255 45 0 11.6799 157.520 3 37 997 0 9 65 65 11.3649 157.247 2 38 995 11.5075 156.962 TS 42 992 7 317
1994251N10180 1994 82 WP MM MELISSA 1994-09-12 06:00:00 TS 11.6500 157.050 40 996 tokyo main 1753 1742 OOOO__________ jtwc_wp WP261994 11.4000 157.100 45 0 11.9000 157.300 3 40 996 0 9 70 70 0 11.5000 157.000 2 38 995 11.8000 156.800 TS 45 990 6 324
1994251N10180 1994 82 WP MM MELISSA 1994-09-12 09:00:00 TS 11.8894 156.889 main 1765 1765 PPPP__________ WP261994 11.6650 157.005 47 0 12.1075 157.063 3 42 994 0 9 85 85 11.7200 156.790 2 43 992 12.0650 156.697 TS 45 990 5 335
1994251N10180 1994 82 WP MM MELISSA 1994-09-12 12:00:00 TS 12.1250 156.825 45 992 tokyo main 1782 1782 OOOO__________ jtwc_wp WP261994 11.9000 157.000 50 0 12.3000 156.900 3 45 992 0 9 100 100 0 12.0000 156.700 3 48 990 12.3000 156.700 TS 45 990 5 0
1994251N10180 1994 82 WP MM MELISSA 1994-09-12 15:00:00 TS 12.3662 156.869 main 1817 1817 PPPP__________ WP261994 12.1075 157.070 50 0 12.5000 156.847 3 45 991 0 9 110 110 12.3500 156.747 3 48 990 12.5075 156.812 TS 47 987 5 20
1994251N10180 1994 82 WP MM MELISSA 1994-09-12 18:00:00 TS 12.6000 157.000 45 990 tokyo main 1842 1842 OOOO__________ jtwc_wp WP261994 12.3000 157.200 50 0 12.7000 156.900 3 45 990 0 9 120 120 0 12.7000 156.900 3 48 990 12.7000 157.000 STS 50 985 5 32
1994251N10180 1994 82 WP MM MELISSA 1994-09-12 21:00:00 TS 12.8200 157.156 main 1870 1870 PPPP__________ WP261994 12.4925 157.335 52 0 12.9000 157.020 3 47 987 0 9 135 135 12.9875 157.077 3 48 990 12.9000 157.193 STS 52 982 5 39
1994251N10180 1994 82 WP MM MELISSA 1994-09-13 00:00:00 TS 13.0250 157.350 50 985 tokyo main 1899 1899 OOOO__________ jtwc_wp WP261994 12.7000 157.500 55 0 13.1000 157.200 4 50 985 0 9 150 150 0 13.2000 157.300 3 48 990 13.1000 157.400 STS 55 980 6 45
1994251N10180 1994 82 WP MM MELISSA 1994-09-13 03:00:00 TS 13.2087 157.559 main 1929 1929 PPPP__________ WP261994 12.9425 157.700 57 0 13.2925 157.393 4 52 982 0 9 165 165 13.3075 157.543 3 48 987 13.2925 157.600 STS 57 977 6 48
1994251N10180 1994 82 WP MM MELISSA 1994-09-13 06:00:00 TS 13.4000 157.775 55 980 tokyo main 1958 1958 OOOO__________ jtwc_wp WP261994 13.2000 157.900 60 0 13.5000 157.600 4 55 980 9 40 40 9 180 180 0 13.4000 157.800 3 48 985 13.5000 157.800 STS 60 975 6 45
1994251N10180 1994 82 WP MM MELISSA 1994-09-13 09:00:00 TS 13.6244 157.983 main 1987 1987 PPPP__________ WP261994 13.4425 158.058 60 0 13.7425 157.800 4 57 977 9 50 50 9 190 190 13.5700 158.065 3 48 985 13.7425 158.008 STS 60 975 6 39
1994251N10180 1994 82 WP MM MELISSA 1994-09-13 12:00:00 TS 13.8750 158.175 60 975 tokyo main 2026 2026 OOOO__________ jtwc_wp WP261994 13.7000 158.200 60 0 14.0000 158.000 4 60 975 9 60 60 9 200 200 0 13.8000 158.300 3 48 985 14.0000 158.200 STS 60 975 6 34
1994251N10180 1994 82 WP MM MELISSA 1994-09-13 15:00:00 TS 14.1444 158.343 main 2051 2051 PPPP__________ WP261994 13.9925 158.350 62 0 14.2500 158.200 4 62 972 9 60 60 9 200 200 14.0850 158.473 3 53 982 14.2500 158.350 STS 62 972 6 30
1994251N10180 1994 82 WP MM MELISSA 1994-09-13 18:00:00 TS 14.4250 158.500 65 970 tokyo main 2091 2091 OOOO__________ jtwc_wp WP261994 14.3000 158.500 65 1 14.5000 158.400 5 65 970 9 60 60 9 200 200 0 14.4000 158.600 3 58 980 14.5000 158.500 T 65 970 6 29
1994251N10180 1994 82 WP MM MELISSA 1994-09-13 21:00:00 TS 14.7056 158.664 main 2130 2130 PPPP__________ WP261994 14.6000 158.650 70 1 14.7575 158.607 5 67 967 9 65 65 9 250 250 14.7150 158.700 3 63 975 14.7500 158.700 T 67 967 6 30
1994251N10180 1994 82 WP MM MELISSA 1994-09-14 00:00:00 TS 14.9750 158.825 70 965 tokyo main 2165 2165 OOOO__________ jtwc_wp WP261994 14.9000 158.800 75 1 15.0000 158.800 5 70 965 9 70 70 9 300 300 0 15.0000 158.800 4 68 970 15.0000 158.900 T 70 965 6 30
1994251N10180 1994 82 WP MM MELISSA 1994-09-14 03:00:00 TS 15.2125 158.971 main 2194 2194 PPPP__________ WP261994 15.2000 158.950 80 1 15.2000 158.950 5 72 962 9 80 80 9 325 325 15.2000 158.935 4 72 965 15.2500 159.050 T 72 962 6 31
1994251N10180 1994 82 WP MM MELISSA 1994-09-14 06:00:00 TS 15.4500 159.125 75 960 tokyo main 2229 2219 OOOO__________ jtwc_wp WP261994 15.5000 159.100 85 2 15.4000 159.100 5 75 960 9 90 90 9 350 350 0 15.4000 159.100 4 77 960 15.5000 159.200 T 75 960 6 34
1994251N10180 1994 82 WP MM MELISSA 1994-09-14 09:00:00 TS 15.6931 159.311 main 2259 2259 PPPP__________ WP261994 15.7850 159.250 90 2 15.6050 159.293 5 77 955 9 100 100 9 350 350 15.6625 159.293 4 77 957 15.7200 159.408 T 77 957 7 33
1994251N10180 1994 82 WP MM MELISSA 1994-09-14 12:00:00 TS 16.0000 159.500 80 950 tokyo main 2298 2298 OOOO__________ jtwc_wp WP261994 16.1000 159.400 95 2 15.9000 159.500 5 80 950 9 110 110 9 350 350 0 16.0000 159.500 4 77 955 16.0000 159.600 T 80 955 8 27
1994251N10180 1994 82 WP MM MELISSA 1994-09-14 15:00:00 TS 16.4107 159.692 main 2348 2348 PPPP__________ WP261994 16.4700 159.565 102 3 16.3550 159.730 5 82 947 9 115 115 9 350 350 16.4125 159.745 4 82 950 16.4050 159.730 T 82 952 10 19
1994251N10180 1994 82 WP MM MELISSA 1994-09-14 18:00:00 TS 16.9000 159.825 85 945 tokyo main 2403 2403 OOOO__________ jtwc_wp WP261994 16.9000 159.700 110 3 16.9000 159.900 5 85 945 9 120 120 9 350 350 0 16.9000 159.900 5 87 945 16.9000 159.800 ST 85 950 10 8
1994251N10180 1994 82 WP MM MELISSA 1994-09-14 21:00:00 TS 17.4262 159.846 main 2454 2454 PPPP__________ WP261994 17.3775 159.780 115 4 17.4500 159.945 5 87 940 9 130 130 9 362 362 17.4425 159.838 5 87 942 17.4350 159.823 ST 90 945 11 0
1994251N10180 1994 82 WP MM MELISSA 1994-09-15 00:00:00 TS 17.9750 159.800 90 935 tokyo main 2515 2515 OOOO__________ jtwc_wp WP261994 17.9000 159.800 120 4 18.0000 159.900 5 90 935 9 140 140 9 375 375 0 18.0000 159.700 5 87 940 18.0000 159.800 ST 95 940 11 355
1994251N10180 1994 82 WP MM MELISSA 1994-09-15 03:00:00 TS 18.4925 159.745 main 2562 2562 PPPP__________ WP261994 18.4350 159.773 125 4 18.4925 159.815 5 90 932 9 145 145 9 437 362 18.4925 159.635 5 92 935 18.5500 159.758 ST 100 935 11 354
1994251N10180 1994 82 WP MM MELISSA 1994-09-15 06:00:00 TS 19.0250 159.675 90 930 tokyo main 2614 2562 OOOO__________ jtwc_wp WP261994 19.0000 159.700 130 4 19.0000 159.700 5 90 930 9 150 150 3 500 350 0 19.0000 159.600 5 97 930 19.1000 159.700 SuperT 105 930 11 355
1994251N10180 1994 82 WP MM MELISSA 1994-09-15 09:00:00 TS 19.5956 159.635 main 2562 2513 PPPP__________ WP261994 19.5850 159.622 132 4 19.5775 159.615 5 95 925 9 155 155 3 550 350 19.5775 159.629 5 101 927 19.6425 159.672 SuperT 105 930 12 354
1994251N10180 1994 82 WP MM MELISSA 1994-09-15 12:00:00 TS 20.2000 159.550 100 920 tokyo main 2513 2449 OOOO__________ jtwc_wp WP261994 20.2000 159.500 135 4 20.2000 159.500 5 100 920 9 160 160 3 600 350 0 20.2000 159.600 6 106 925 20.2000 159.600 SuperT 105 930 13 349
1994251N10180 1994 82 WP MM MELISSA 1994-09-15 15:00:00 TS 20.8281 159.379 main 2449 2379 PPPP__________ WP261994 20.8425 159.330 132 4 20.8424 159.337 5 100 917 9 160 160 3 600 350 20.8425 159.403 6 111 922 20.7849 159.445 SuperT 105 930 13 343
1994251N10180 1994 82 WP MM MELISSA 1994-09-15 18:00:00 TS 21.4750 159.125 100 915 tokyo main 2371 2302 OOOO__________ jtwc_wp WP261994 21.5000 159.100 130 4 21.5000 159.100 5 100 915 9 160 160 3 600 350 0 21.5000 159.100 6 116 920 21.4000 159.200 SuperT 105 930 14 338
1994251N10180 1994 82 WP MM MELISSA 1994-09-15 21:00:00 TS 22.1194 158.812 main 2302 2232 PPPP__________ WP261994 22.1499 158.830 127 4 22.1425 158.772 5 105 912 9 170 170 3 600 350 22.1425 158.765 6 116 920 22.0425 158.880 SuperT 105 930 14 334
1994251N10180 1994 82 WP MM MELISSA 1994-09-16 00:00:00 TS 22.7750 158.450 110 910 tokyo main 2225 2149 OOOO__________ jtwc_wp WP261994 22.8000 158.500 125 4 22.8000 158.400 5 110 910 9 180 180 3 600 350 0 22.8000 158.400 6 116 920 22.7000 158.500 SuperT 105 930 15 333
1994251N10180 1994 82 WP MM MELISSA 1994-09-16 03:00:00 TS 23.4461 158.088 main 2149 2065 PPPP__________ WP261994 23.4424 158.130 120 4 23.4999 158.057 5 110 910 9 180 180 3 600 350 23.5074 158.057 6 116 920 23.3350 158.107 SuperT 105 930 15 333
1994251N10180 1994 82 WP MM MELISSA 1994-09-16 06:00:00 TS 24.1250 157.700 110 910 tokyo main 2065 1990 OOOO__________ jtwc_wp WP261994 24.1000 157.700 115 4 24.2000 157.700 5 110 910 9 180 180 3 600 350 0 24.2000 157.700 6 116 920 24.0000 157.700 SuperT 105 930 15 331
1994251N10180 1994 82 WP MM MELISSA 1994-09-16 09:00:00 TS 24.7868 157.284 main 1983 1908 PPPP__________ WP261994 24.7850 157.215 112 3 24.8425 157.307 5 107 915 9 175 175 3 600 350 24.7850 157.307 6 106 922 24.7348 157.307 SuperT 102 932 16 330
1994251N10180 1994 82 WP MM MELISSA 1994-09-16 12:00:00 TS 25.4750 156.850 105 920 tokyo main 1894 1813 OOOO__________ jtwc_wp WP261994 25.5000 156.700 110 3 25.5000 156.900 5 105 920 9 170 170 3 600 350 0 25.4000 156.900 5 97 925 25.5000 156.900 SuperT 100 935 16 331
1994251N10180 1994 82 WP MM MELISSA 1994-09-16 15:00:00 TS 26.2186 156.423 main 1813 1726 PPPP__________ WP261994 26.2423 156.207 105 3 26.2198 156.514 5 102 922 9 170 170 3 550 350 26.1624 156.507 5 97 927 26.2499 156.464 SuperT 97 937 17 333
1994251N10180 1994 82 WP MM MELISSA 1994-09-16 18:00:00 TS 27.0000 155.975 100 925 tokyo main 1726 1632 OOOO__________ jtwc_wp WP261994 27.0000 155.700 100 3 27.0000 156.100 5 100 925 9 170 170 3 500 350 0 27.0000 156.100 5 97 930 27.0000 156.000 ST 95 940 18 333
1994251N10180 1994 82 WP MM MELISSA 1994-09-16 21:00:00 TS 27.8053 155.501 main 1632 1541 PPPP__________ WP261994 27.7499 155.157 95 2 27.8646 155.645 5 95 930 9 170 170 3 450 350 27.8572 155.679 5 92 937 27.7497 155.522 ST 90 942 18 331
1994251N10180 1994 82 WP MM MELISSA 1994-09-17 00:00:00 TS 28.6000 154.975 90 935 tokyo main 1541 1449 OOOO__________ jtwc_wp WP261994 28.5000 154.600 90 2 28.7000 155.100 5 90 935 9 170 170 3 400 350 0 28.7000 155.200 5 87 945 28.5000 155.000 ST 85 945 18 327
1994251N10180 1994 82 WP MM MELISSA 1994-09-17 03:00:00 TS 29.3269 154.371 main 1449 1358 PPPP__________ WP261994 29.2423 154.049 85 2 29.3581 154.392 5 85 937 9 160 160 3 400 300 29.4573 154.636 5 82 950 29.2500 154.407 ST 82 947 18 324
1994251N10180 1994 82 WP MM MELISSA 1994-09-17 06:00:00 TS 30.0500 153.750 80 940 tokyo main 1352 1264 OOOO__________ jtwc_wp WP261994 30.0000 153.500 80 1 30.0000 153.700 5 80 940 9 150 150 1 400 250 0 30.2000 154.000 4 77 955 30.0000 153.800 T 80 950 18 325
1994251N10180 1994 82 WP MM MELISSA 1994-09-17 09:00:00 TS 30.8317 153.168 main 1264 1180 PPPP__________ WP261994 30.7922 152.957 75 1 30.7768 153.219 5 77 942 9 150 150 1 400 250 31.0081 153.256 4 72 962 30.7497 153.241 T 75 955 19 328
1994251N10180 1994 82 WP MM MELISSA 1994-09-17 12:00:00 TS 31.6250 152.625 75 945 tokyo main 1172 1105 OOOO__________ jtwc_wp WP261994 31.6000 152.400 70 1 31.6000 152.800 5 75 945 9 150 150 1 400 250 0 31.8000 152.600 4 68 970 31.5000 152.700 T 70 960 18 331
1994251N10180 1994 82 WP MM MELISSA 1994-09-17 15:00:00 TS 32.3754 152.165 main 1101 1029 PPPP__________ WP261994 32.3999 151.799 67 1 32.3841 152.357 5 72 947 9 140 140 1 350 225 32.4831 152.332 4 68 972 32.2345 152.171 T 65 965 17 332
1994251N10180 1994 82 WP MM MELISSA 1994-09-17 18:00:00 TS 33.1500 151.650 70 950 tokyo main 1026 929 OOOO__________ jtwc_wp WP261994 33.2000 151.200 65 1 33.2000 151.800 5 70 950 9 130 130 1 300 200 0 33.2000 152.000 4 68 975 33.0000 151.600 STS 60 970 20 327
1994251N10180 1994 82 WP MM MELISSA 1994-09-17 21:00:00 TS 34.0117 150.882 main 929 848 PPPP__________ WP261994 34.0072 150.634 62 0 34.1091 150.931 5 70 952 9 125 125 1 300 200 34.0951 151.070 4 63 977 33.8354 150.893 STS 60 970 21 324
1994251N10180 1994 82 WP MM MELISSA 1994-09-18 00:00:00 TS 34.8750 150.125 70 955 tokyo main 837 778 OOOO__________ jtwc_wp WP261994 34.8000 150.100 60 0 35.0000 150.100 5 70 955 9 120 120 1 300 200 0 35.0000 150.100 3 58 980 34.7000 150.200 STS 60 970 20 327
1994251N10180 1994 82 WP MM MELISSA 1994-09-18 03:00:00 TS 35.6625 149.600 main 773 717 PPPP__________ WP261994 35.5650 149.555 57 0 35.7640 149.650 5 67 957 9 120 120 1 350 200 35.7639 149.563 3 58 980 35.5572 149.632 STS 60 970 17 335
1994251N10180 1994 82 WP MM MELISSA 1994-09-18 06:00:00 TS 36.4250 149.250 65 960 tokyo main 717 652 OOOO__________ jtwc_wp WP261994 36.3000 149.100 55 0 36.5000 149.400 5 65 960 9 120 120 1 400 200 0 36.5000 149.300 3 58 980 36.4000 149.200 STS 60 970 16 343
1994251N10180 1994 82 WP MM MELISSA 1994-09-18 09:00:00 TS 37.2222 149.016 main 652 614 PPPP__________ WP261994 37.0072 148.782 55 0 37.3223 149.169 5 65 962 9 120 120 1 400 200 37.3222 149.225 3 58 980 37.2372 148.889 STS 60 970 16 349
1994251N10180 1994 82 WP MM MELISSA 1994-09-18 12:00:00 TS 37.9750 148.875 65 965 tokyo main 611 576 OOOO__________ jtwc_wp WP261994 37.7000 148.600 55 0 38.1000 149.000 5 65 965 9 120 120 1 400 200 0 38.1000 149.200 3 58 980 38.0000 148.700 STS 60 970 14 350
1994251N10180 1994 82 WP MM MELISSA 1994-09-18 15:00:00 TS 38.6337 148.715 main 576 514 PPPP__________ WP261994 38.4074 148.505 52 0 38.7449 148.835 5 62 967 9 115 115 1 400 250 38.7452 148.958 3 58 980 38.6374 148.562 STS 57 972 13 350
1994251N10180 1994 82 WP MM MELISSA 1994-09-18 18:00:00 TS 39.2250 148.600 60 970 tokyo main 514 452 OOOO__________ jtwc_wp WP261994 39.1000 148.500 50 0 39.3000 148.700 4 60 970 9 110 110 1 400 300 0 39.3000 148.700 3 58 980 39.2000 148.500 STS 55 975 12 353
1994251N10180 1994 82 WP MM MELISSA 1994-09-18 21:00:00 TS 39.7843 148.532 main 452 406 PPPP__________ WP261994 39.7575 148.535 50 0 39.8150 148.570 4 60 970 9 130 85 1 475 275 39.8074 148.555 3 58 980 39.7575 148.470 STS 55 975 11 357
1994251N10180 1994 82 WP MM MELISSA 1994-09-19 00:00:00 TS 40.3267 148.527 60 970 tokyo main 406 355 OOOO__________ jtwc_wp WP261994 40.4000 148.600 50 0 40.3000 148.500 4 60 970 8 150 60 8 550 250 0 40.3000 148.500 3 58 980 40.3000 148.500 STS 55 975 11 1
1994251N10180 1994 82 WP MM MELISSA 1994-09-19 03:00:00 TS 40.9031 148.543 main 355 323 PPPP__________ WP261994 41.0424 148.628 47 0 40.8224 148.498 4 60 972 8 150 60 8 550 250 40.8723 148.483 3 53 982 40.8476 148.585 STS 55 975 11 4
1994251N10180 1994 82 WP MM MELISSA 1994-09-19 06:00:00 TS 41.4667 148.642 60 975 tokyo main 316 298 OOOO__________ jtwc_wp WP261994 41.7000 148.700 45 0 41.3000 148.600 4 60 975 1 150 60 1 550 250 0 41.4000 148.600 3 48 985 41.4000 148.700 STS 55 975 11 12
1994251N10180 1994 82 WP MM MELISSA 1994-09-19 09:00:00 TS 41.9936 148.855 main 305 288 PPP___________ WP261994 42.4000 148.863 45 0 41.6876 148.827 4 57 977 1 130 55 1 475 175 41.7930 148.897 3 48 985 STS 10 21
1994251N10180 1994 82 WP MM MELISSA 1994-09-19 12:00:00 TS 42.4250 149.125 55 980 tokyo main 288 260 OOO___________ jtwc_wp WP261994 43.1000 149.100 45 0 42.0000 149.100 4 55 980 1 110 50 1 400 100 0 42.1000 149.300 3 48 985 8 24
1994251N10180 1994 82 WP MM MELISSA 1994-09-19 15:00:00 TS 42.7641 149.329 main 260 255 PP____________ WP261994 43.7627 149.386 42 0 42.2649 149.301 4 981 1 1 3 5 34
1994251N10180 1994 82 WP MM MELISSA 1994-09-19 18:00:00 ET 42.8800 149.540 982 tokyo main 260 260 OO____________ jtwc_wp WP261994 44.4000 149.700 40 0 42.5000 149.500 6 982 0 0 0 3 88
1994251N10180 1994 82 WP MM MELISSA 1994-09-19 21:00:00 ET 42.7725 149.742 main 278 272 _P____________ WP261994 -1 42.7725 149.742 6 983 0 0 4 70
1994251N10180 1994 82 WP MM MELISSA 1994-09-20 00:00:00 ET 43.0000 150.000 984 tokyo main 272 265 _O____________ -1 43.0000 150.000 6 984 0 0 0 5 45
1994251N10180 1994 82 WP MM MELISSA 1994-09-20 03:00:00 ET 43.1373 150.235 main 268 262 _P____________ -1 43.1373 150.235 6 986 0 0 4 61
1994251N10180 1994 82 WP MM MELISSA 1994-09-20 06:00:00 ET 43.2000 150.500 988 tokyo main 269 269 _O____________ -1 43.2000 150.500 6 988 0 0 0 4 78
1994251N10180 1994 82 WP MM MELISSA 1994-09-20 09:00:00 ET 43.2299 150.827 main 280 280 _P____________ -1 43.2299 150.827 6 990 0 0 5 90
1994251N10180 1994 82 WP MM MELISSA 1994-09-20 12:00:00 ET 43.2000 151.200 992 tokyo main 291 291 _O____________ -1 43.2000 151.200 6 992 0 0 0 6 101
1994251N10180 1994 82 WP MM MELISSA 1994-09-20 15:00:00 ET 43.1151 151.615 main 315 315 _P____________ -1 43.1151 151.615 6 993 0 0 6 109
1994251N10180 1994 82 WP MM MELISSA 1994-09-20 18:00:00 ET 43.0000 152.000 994 tokyo main 341 341 _O____________ -1 43.0000 152.000 6 994 0 0 0 5 114
1994251N10180 1994 82 WP MM MELISSA 1994-09-20 21:00:00 ET 42.9072 152.257 main 364 364 _P____________ -1 42.9072 152.257 6 995 0 0 4 119
1994251N10180 1994 82 WP MM MELISSA 1994-09-21 00:00:00 ET 42.8000 152.500 996 tokyo main 382 382 _O____________ -1 42.8000 152.500 6 996 0 0 0 4 117
1994251N10180 1994 82 WP MM MELISSA 1994-09-21 03:00:00 ET 42.7094 152.788 main 405 405 _P____________ -1 42.7094 152.788 6 996 0 0 6 120
1994251N10180 1994 82 WP MM MELISSA 1994-09-21 06:00:00 ET 42.5000 153.200 996 tokyo main 443 443 _O____________ -1 42.5000 153.200 6 996 0 0 0 10 132
1994251N10180 1994 82 WP MM MELISSA 1994-09-21 09:00:00 ET 42.0525 153.791 main 508 508 _P____________ -1 42.0525 153.791 6 996 0 0 14 136
1994251N10180 1994 82 WP MM MELISSA 1994-09-21 12:00:00 ET 41.5000 154.500 996 tokyo main 596 596 _O____________ -1 41.5000 154.500 6 996 0 0 0 15 134
1994251N10180 1994 82 WP MM MELISSA 1994-09-21 15:00:00 ET 40.9834 155.246 main 676 676 _P____________ -1 40.9834 155.246 6 997 0 0 15 131
1994251N10180 1994 82 WP MM MELISSA 1994-09-21 18:00:00 ET 40.5000 156.000 998 tokyo main 762 _O____________ -1 40.5000 156.000 6 998 0 0 0 15 130

Digital Typhoon Data and Search

About IBTrACS Database

This database is a web-friendly format of International Best Track Archive for Climate Stewardship (IBTrACS), a global best track data archive curated by NOAA dating back to 1842.

Updated: 2021-12-06